Milliken, CO (80543)

2:14 PM MDT on August 30, 2014 (GMT -0600)
Mad Russian | Change Station
CLOSE
Current Station
Personal Weather Station
Location: Milliken, CO
Elevation: 4882 ft
Nearby Weather Stations

Elev 4882 ft 40.35 °N, 104.87 °W | Updated 8 seconds ago

Clear
Clear
85.7 °F
Feels Like 83 °F
N
6.0
Wind Variable Wind from SE
Gusts 11.0 mph

Today
High -- | Low -- °F
--% Chance of Precip.
Yesterday
High -- | Low -- °F
Precip. -- in
6:24 AM 7:34 PM
Waxing Crescent, 24% visible
Pressure 29.94 in
Visibility 8.0 miles
Clouds Clear
Heat Index 83 °F
Dew Point 47 °F
Humidity 26%
Rainfall 0.00 in
Snow Depth Not available.
UV 7.3 out of 12
Pollen 10.50 out of 12
Ozone Good
PM2.5 Good
Flu Activity Not available.
METAR KFNL 301955Z AUTO 14009G14KT 8SM CLR 28/12 A2994 RMK AO1

More Conditions Fewer Conditions

Pressure 29.94 in
Visibility 8.0 miles
Clouds Clear
Heat Index 83 °F
Dew Point 47 °F
Humidity 26%
Rainfall 0.00 in
Snow Depth Not available.
UV 7.3 out of 12
Pollen 10.50 out of 12
Ozone Good
PM2.5 Good
Flu Activity Not available.
METAR KFNL 301955Z AUTO 14009G14KT 8SM CLR 28/12 A2994 RMK AO1

More Conditions Fewer Conditions

10-Day Weather Forecast

Almanac

Astronomy

Aug. 30, 2014 Rise Set
Actual Time 6:24 AM MDT 7:34 PM MDT
Civil Twilight 5:56 AM MDT 8:02 PM MDT
Nautical Twilight 5:23 AM MDT 8:35 PM MDT
Astronomical Twilight 4:48 AM MDT 9:10 PM MDT
Moon 11:15 AM MDT 10:09 PM MDT
Length of Visible Light 14h 05m
Length of Day
13h 09m
Tomorrow will be 2m 32s shorter.
Waxing Crescent, 24% of the Moon is Illuminated
Today
Waxing Crescent
Sep 2
First Quarter
Sep 8
Full
Sep 15
Last Quarter
Sep 24
New

Today's Extremes

State Highs State Lows

Community

WunderPhotos

Upload Photos

1,748,622 photos uploaded!

WunderBlogs® & News

Nearby

Air Quality

  Air Quality AQ Index Pollutant
Yesterday Good
OZONE
Yesterday Good
PM2.5
Current Good
OZONE
Current Good
PM2.5
Saturday Good
PM2.5
Saturday Good
OZONE

Snow Depth

Station Depth Elevation
Phantom Valley 0 in 9030 ft
Joe Wright 0 in 10120 ft
Rawah 8 in 9020 ft
Willow Creek Pass 0 in 9540 ft
Loveland Basin 0 in 11400 ft

Earthquake Activity

City Distance Mag. Time & Date
No recent earthquake activity has been reported nearby.
Minimum magnitude displayed is 2.5.

Coastal Water Temperatures

Place Temperature
No Stations Reporting

Nearby Weather Stations